sensor_id;sensor_type;location;lat;lon;timestamp;P1;durP1;ratioP1;P2;durP2;ratioP2
15833;SDS011;8017;50.812;4.934;2022-08-03T00:02:40;3.20;;;1.63;;
15833;SDS011;8017;50.812;4.934;2022-08-03T00:05:42;2.60;;;1.70;;
15833;SDS011;8017;50.812;4.934;2022-08-03T00:08:44;5.90;;;1.60;;
15833;SDS011;8017;50.812;4.934;2022-08-03T00:11:47;6.00;;;2.17;;
15833;SDS011;8017;50.812;4.934;2022-08-03T00:14:49;4.00;;;1.70;;
15833;SDS011;8017;50.812;4.934;2022-08-03T00:17:51;3.10;;;1.60;;
15833;SDS011;8017;50.812;4.934;2022-08-03T00:20:53;7.83;;;1.97;;
15833;SDS011;8017;50.812;4.934;2022-08-03T00:23:55;5.37;;;1.70;;
15833;SDS011;8017;50.812;4.934;2022-08-03T00:26:58;3.77;;;1.63;;
15833;SDS011;8017;50.812;4.934;2022-08-03T00:30:00;5.40;;;1.97;;
15833;SDS011;8017;50.812;4.934;2022-08-03T00:33:02;3.67;;;1.80;;
15833;SDS011;8017;50.812;4.934;2022-08-03T00:36:04;5.90;;;2.03;;
15833;SDS011;8017;50.812;4.934;2022-08-03T00:39:06;4.67;;;1.90;;
15833;SDS011;8017;50.812;4.934;2022-08-03T00:42:09;4.70;;;1.90;;
15833;SDS011;8017;50.812;4.934;2022-08-03T00:45:11;3.07;;;1.87;;
15833;SDS011;8017;50.812;4.934;2022-08-03T00:48:13;3.13;;;1.70;;
15833;SDS011;8017;50.812;4.934;2022-08-03T00:51:15;3.87;;;1.70;;
15833;SDS011;8017;50.812;4.934;2022-08-03T00:54:17;4.47;;;1.70;;
15833;SDS011;8017;50.812;4.934;2022-08-03T00:57:21;5.20;;;1.97;;
15833;SDS011;8017;50.812;4.934;2022-08-03T01:00:24;2.97;;;1.70;;
15833;SDS011;8017;50.812;4.934;2022-08-03T01:03:27;3.30;;;1.80;;
15833;SDS011;8017;50.812;4.934;2022-08-03T01:06:31;4.33;;;1.70;;
15833;SDS011;8017;50.812;4.934;2022-08-03T01:09:45;5.43;;;1.80;;
15833;SDS011;8017;50.812;4.934;2022-08-03T01:12:56;5.17;;;1.97;;
15833;SDS011;8017;50.812;4.934;2022-08-03T01:16:05;4.50;;;1.83;;
15833;SDS011;8017;50.812;4.934;2022-08-03T01:19:21;3.00;;;1.90;;
15833;SDS011;8017;50.812;4.934;2022-08-03T01:22:44;4.40;;;1.90;;
15833;SDS011;8017;50.812;4.934;2022-08-03T01:26:12;4.73;;;1.70;;
15833;SDS011;8017;50.812;4.934;2022-08-03T01:33:03;4.87;;;1.67;;
15833;SDS011;8017;50.812;4.934;2022-08-03T01:36:11;6.10;;;1.90;;
15833;SDS011;8017;50.812;4.934;2022-08-03T01:39:16;4.53;;;2.13;;
15833;SDS011;8017;50.812;4.934;2022-08-03T01:42:19;4.87;;;2.00;;
15833;SDS011;8017;50.812;4.934;2022-08-03T01:45:23;3.57;;;1.77;;
15833;SDS011;8017;50.812;4.934;2022-08-03T01:48:26;3.23;;;1.90;;
15833;SDS011;8017;50.812;4.934;2022-08-03T01:51:29;3.70;;;2.20;;
15833;SDS011;8017;50.812;4.934;2022-08-03T01:54:33;4.57;;;2.00;;
15833;SDS011;8017;50.812;4.934;2022-08-03T01:57:37;4.33;;;1.90;;
15833;SDS011;8017;50.812;4.934;2022-08-03T02:00:42;3.83;;;1.77;;
15833;SDS011;8017;50.812;4.934;2022-08-03T02:03:44;4.77;;;1.80;;
15833;SDS011;8017;50.812;4.934;2022-08-03T02:06:49;3.33;;;1.90;;
15833;SDS011;8017;50.812;4.934;2022-08-03T02:09:52;5.07;;;2.10;;
15833;SDS011;8017;50.812;4.934;2022-08-03T02:12:56;3.67;;;1.90;;
15833;SDS011;8017;50.812;4.934;2022-08-03T02:16:02;5.07;;;2.40;;
15833;SDS011;8017;50.812;4.934;2022-08-03T02:19:06;3.90;;;2.53;;
15833;SDS011;8017;50.812;4.934;2022-08-03T02:22:10;7.87;;;2.70;;
15833;SDS011;8017;50.812;4.934;2022-08-03T02:25:14;4.60;;;2.47;;
15833;SDS011;8017;50.812;4.934;2022-08-03T02:28:18;3.17;;;2.10;;
15833;SDS011;8017;50.812;4.934;2022-08-03T02:31:23;5.50;;;2.30;;
15833;SDS011;8017;50.812;4.934;2022-08-03T02:34:28;5.03;;;2.50;;
15833;SDS011;8017;50.812;4.934;2022-08-03T02:37:35;5.87;;;2.63;;
15833;SDS011;8017;50.812;4.934;2022-08-03T02:40:41;8.77;;;2.60;;
15833;SDS011;8017;50.812;4.934;2022-08-03T02:43:45;5.10;;;2.73;;
15833;SDS011;8017;50.812;4.934;2022-08-03T02:46:53;6.33;;;2.43;;
15833;SDS011;8017;50.812;4.934;2022-08-03T02:49:59;4.37;;;2.23;;
15833;SDS011;8017;50.812;4.934;2022-08-03T02:53:02;3.13;;;2.30;;
15833;SDS011;8017;50.812;4.934;2022-08-03T02:56:05;6.53;;;2.10;;
15833;SDS011;8017;50.812;4.934;2022-08-03T02:59:08;4.87;;;2.43;;
15833;SDS011;8017;50.812;4.934;2022-08-03T03:02:13;5.27;;;2.50;;
15833;SDS011;8017;50.812;4.934;2022-08-03T03:05:16;2.80;;;1.97;;
15833;SDS011;8017;50.812;4.934;2022-08-03T03:08:18;4.70;;;2.17;;
15833;SDS011;8017;50.812;4.934;2022-08-03T03:11:21;3.57;;;2.30;;
15833;SDS011;8017;50.812;4.934;2022-08-03T03:14:25;4.47;;;2.37;;
15833;SDS011;8017;50.812;4.934;2022-08-03T03:17:30;5.33;;;2.50;;
15833;SDS011;8017;50.812;4.934;2022-08-03T03:20:33;3.43;;;2.40;;
15833;SDS011;8017;50.812;4.934;2022-08-03T03:23:36;5.63;;;2.33;;
15833;SDS011;8017;50.812;4.934;2022-08-03T03:26:39;3.43;;;2.17;;
15833;SDS011;8017;50.812;4.934;2022-08-03T03:29:42;5.13;;;2.60;;
15833;SDS011;8017;50.812;4.934;2022-08-03T03:32:46;2.77;;;2.13;;
15833;SDS011;8017;50.812;4.934;2022-08-03T03:35:48;5.03;;;1.93;;
15833;SDS011;8017;50.812;4.934;2022-08-03T03:38:51;4.73;;;2.30;;
15833;SDS011;8017;50.812;4.934;2022-08-03T03:41:53;5.00;;;2.20;;
15833;SDS011;8017;50.812;4.934;2022-08-03T03:44:56;4.53;;;2.00;;
15833;SDS011;8017;50.812;4.934;2022-08-03T03:48:00;9.37;;;2.27;;
15833;SDS011;8017;50.812;4.934;2022-08-03T03:51:02;7.17;;;2.43;;
15833;SDS011;8017;50.812;4.934;2022-08-03T03:54:04;4.03;;;2.30;;
15833;SDS011;8017;50.812;4.934;2022-08-03T03:57:06;5.13;;;2.30;;
15833;SDS011;8017;50.812;4.934;2022-08-03T04:00:09;4.13;;;2.50;;
15833;SDS011;8017;50.812;4.934;2022-08-03T04:03:13;4.77;;;2.30;;
15833;SDS011;8017;50.812;4.934;2022-08-03T04:06:15;3.70;;;1.97;;
15833;SDS011;8017;50.812;4.934;2022-08-03T04:09:37;3.73;;;2.10;;
15833;SDS011;8017;50.812;4.934;2022-08-03T04:12:59;6.10;;;2.40;;
15833;SDS011;8017;50.812;4.934;2022-08-03T04:16:02;3.63;;;2.23;;
15833;SDS011;8017;50.812;4.934;2022-08-03T04:19:07;4.83;;;2.37;;
15833;SDS011;8017;50.812;4.934;2022-08-03T04:22:11;7.70;;;2.67;;
15833;SDS011;8017;50.812;4.934;2022-08-03T04:25:17;4.83;;;1.87;;
15833;SDS011;8017;50.812;4.934;2022-08-03T04:28:25;5.00;;;2.30;;
15833;SDS011;8017;50.812;4.934;2022-08-03T04:31:28;4.33;;;1.97;;
15833;SDS011;8017;50.812;4.934;2022-08-03T04:34:32;5.47;;;2.30;;
15833;SDS011;8017;50.812;4.934;2022-08-03T04:37:34;3.33;;;2.00;;
15833;SDS011;8017;50.812;4.934;2022-08-03T04:40:40;3.57;;;2.37;;
15833;SDS011;8017;50.812;4.934;2022-08-03T04:43:43;3.70;;;2.10;;
15833;SDS011;8017;50.812;4.934;2022-08-03T04:46:46;6.07;;;2.60;;
15833;SDS011;8017;50.812;4.934;2022-08-03T04:49:50;3.03;;;2.20;;
15833;SDS011;8017;50.812;4.934;2022-08-03T04:52:53;4.30;;;2.03;;
15833;SDS011;8017;50.812;4.934;2022-08-03T04:56:02;6.20;;;2.50;;
15833;SDS011;8017;50.812;4.934;2022-08-03T04:59:04;3.53;;;2.20;;
15833;SDS011;8017;50.812;4.934;2022-08-03T05:02:06;4.30;;;2.27;;
15833;SDS011;8017;50.812;4.934;2022-08-03T05:05:10;5.33;;;2.70;;
15833;SDS011;8017;50.812;4.934;2022-08-03T05:08:11;7.17;;;2.30;;
15833;SDS011;8017;50.812;4.934;2022-08-03T05:11:13;5.67;;;2.20;;
15833;SDS011;8017;50.812;4.934;2022-08-03T05:14:15;9.77;;;3.70;;
15833;SDS011;8017;50.812;4.934;2022-08-03T05:17:17;10.30;;;3.17;;
15833;SDS011;8017;50.812;4.934;2022-08-03T05:20:21;6.63;;;2.53;;
15833;SDS011;8017;50.812;4.934;2022-08-03T05:23:22;5.23;;;2.63;;
15833;SDS011;8017;50.812;4.934;2022-08-03T05:26:24;7.50;;;2.43;;
15833;SDS011;8017;50.812;4.934;2022-08-03T05:29:26;5.70;;;2.87;;
15833;SDS011;8017;50.812;4.934;2022-08-03T05:32:28;5.67;;;2.70;;
15833;SDS011;8017;50.812;4.934;2022-08-03T05:35:31;5.10;;;2.60;;
15833;SDS011;8017;50.812;4.934;2022-08-03T05:38:34;9.33;;;3.00;;
15833;SDS011;8017;50.812;4.934;2022-08-03T05:41:36;7.37;;;2.13;;
15833;SDS011;8017;50.812;4.934;2022-08-03T05:44:37;5.93;;;2.77;;
15833;SDS011;8017;50.812;4.934;2022-08-03T05:47:41;7.33;;;3.07;;
15833;SDS011;8017;50.812;4.934;2022-08-03T05:50:44;4.53;;;2.63;;
15833;SDS011;8017;50.812;4.934;2022-08-03T05:53:46;3.00;;;2.20;;
15833;SDS011;8017;50.812;4.934;2022-08-03T05:56:48;5.57;;;2.80;;
15833;SDS011;8017;50.812;4.934;2022-08-03T05:59:50;4.40;;;2.53;;
15833;SDS011;8017;50.812;4.934;2022-08-03T06:02:52;6.77;;;2.27;;
15833;SDS011;8017;50.812;4.934;2022-08-03T06:05:55;7.70;;;2.50;;
15833;SDS011;8017;50.812;4.934;2022-08-03T06:08:57;4.87;;;2.97;;
15833;SDS011;8017;50.812;4.934;2022-08-03T06:11:59;4.13;;;2.63;;
15833;SDS011;8017;50.812;4.934;2022-08-03T06:15:01;5.50;;;2.60;;
15833;SDS011;8017;50.812;4.934;2022-08-03T06:18:04;6.50;;;2.67;;
15833;SDS011;8017;50.812;4.934;2022-08-03T06:21:08;4.93;;;2.57;;
15833;SDS011;8017;50.812;4.934;2022-08-03T06:24:10;3.33;;;2.60;;
15833;SDS011;8017;50.812;4.934;2022-08-03T06:27:12;6.23;;;2.87;;
15833;SDS011;8017;50.812;4.934;2022-08-03T06:30:13;5.90;;;2.27;;
15833;SDS011;8017;50.812;4.934;2022-08-03T06:33:16;5.57;;;2.67;;
15833;SDS011;8017;50.812;4.934;2022-08-03T06:36:19;4.27;;;2.77;;
15833;SDS011;8017;50.812;4.934;2022-08-03T06:39:21;5.17;;;2.20;;
15833;SDS011;8017;50.812;4.934;2022-08-03T06:42:23;5.30;;;2.40;;
15833;SDS011;8017;50.812;4.934;2022-08-03T06:45:25;8.97;;;2.60;;
15833;SDS011;8017;50.812;4.934;2022-08-03T06:48:28;4.83;;;2.07;;
15833;SDS011;8017;50.812;4.934;2022-08-03T06:51:31;6.70;;;1.90;;
15833;SDS011;8017;50.812;4.934;2022-08-03T06:54:33;7.10;;;2.57;;
15833;SDS011;8017;50.812;4.934;2022-08-03T06:57:35;4.73;;;2.30;;
15833;SDS011;8017;50.812;4.934;2022-08-03T07:00:37;8.30;;;2.20;;
15833;SDS011;8017;50.812;4.934;2022-08-03T07:03:39;2.77;;;1.80;;
15833;SDS011;8017;50.812;4.934;2022-08-03T07:06:42;5.47;;;1.80;;
15833;SDS011;8017;50.812;4.934;2022-08-03T07:09:44;5.93;;;1.70;;
15833;SDS011;8017;50.812;4.934;2022-08-03T07:12:47;6.00;;;1.80;;
15833;SDS011;8017;50.812;4.934;2022-08-03T07:15:49;5.97;;;1.93;;
15833;SDS011;8017;50.812;4.934;2022-08-03T07:18:51;4.67;;;2.27;;
15833;SDS011;8017;50.812;4.934;2022-08-03T07:21:54;5.73;;;1.90;;
15833;SDS011;8017;50.812;4.934;2022-08-03T07:24:56;3.97;;;1.53;;
15833;SDS011;8017;50.812;4.934;2022-08-03T07:27:58;3.47;;;1.50;;
15833;SDS011;8017;50.812;4.934;2022-08-03T07:31:00;4.73;;;1.40;;
15833;SDS011;8017;50.812;4.934;2022-08-03T07:34:02;4.50;;;1.53;;
15833;SDS011;8017;50.812;4.934;2022-08-03T07:37:05;8.37;;;1.53;;
15833;SDS011;8017;50.812;4.934;2022-08-03T07:40:07;8.97;;;1.20;;
15833;SDS011;8017;50.812;4.934;2022-08-03T07:43:09;3.60;;;1.00;;
15833;SDS011;8017;50.812;4.934;2022-08-03T07:46:11;6.40;;;1.53;;
15833;SDS011;8017;50.812;4.934;2022-08-03T07:49:13;14.73;;;2.37;;
15833;SDS011;8017;50.812;4.934;2022-08-03T07:52:17;6.20;;;1.30;;
15833;SDS011;8017;50.812;4.934;2022-08-03T07:55:36;2.90;;;0.97;;
15833;SDS011;8017;50.812;4.934;2022-08-03T07:58:38;5.57;;;1.10;;
15833;SDS011;8017;50.812;4.934;2022-08-03T08:01:40;2.43;;;0.80;;
15833;SDS011;8017;50.812;4.934;2022-08-03T08:04:42;1.70;;;1.03;;
15833;SDS011;8017;50.812;4.934;2022-08-03T08:07:45;3.00;;;0.87;;
15833;SDS011;8017;50.812;4.934;2022-08-03T08:10:47;3.93;;;0.70;;
15833;SDS011;8017;50.812;4.934;2022-08-03T08:13:49;3.40;;;1.00;;
15833;SDS011;8017;50.812;4.934;2022-08-03T08:16:51;3.30;;;0.93;;
15833;SDS011;8017;50.812;4.934;2022-08-03T08:19:53;3.80;;;0.90;;
15833;SDS011;8017;50.812;4.934;2022-08-03T08:22:57;2.43;;;0.90;;
15833;SDS011;8017;50.812;4.934;2022-08-03T08:25:59;2.33;;;0.77;;
15833;SDS011;8017;50.812;4.934;2022-08-03T08:29:01;5.97;;;1.23;;
15833;SDS011;8017;50.812;4.934;2022-08-03T08:32:04;4.37;;;1.20;;
15833;SDS011;8017;50.812;4.934;2022-08-03T08:35:06;4.13;;;1.00;;
15833;SDS011;8017;50.812;4.934;2022-08-03T08:38:11;3.23;;;1.00;;
15833;SDS011;8017;50.812;4.934;2022-08-03T08:41:13;3.20;;;1.00;;
15833;SDS011;8017;50.812;4.934;2022-08-03T08:44:15;3.23;;;0.90;;
15833;SDS011;8017;50.812;4.934;2022-08-03T08:47:17;6.10;;;1.20;;
15833;SDS011;8017;50.812;4.934;2022-08-03T08:50:23;4.57;;;1.20;;
15833;SDS011;8017;50.812;4.934;2022-08-03T08:53:27;2.20;;;1.00;;
15833;SDS011;8017;50.812;4.934;2022-08-03T08:56:31;3.17;;;1.00;;
15833;SDS011;8017;50.812;4.934;2022-08-03T08:59:33;2.63;;;0.97;;
15833;SDS011;8017;50.812;4.934;2022-08-03T09:02:36;2.10;;;1.10;;
15833;SDS011;8017;50.812;4.934;2022-08-03T09:05:37;2.40;;;1.10;;
15833;SDS011;8017;50.812;4.934;2022-08-03T09:08:44;4.00;;;1.20;;
15833;SDS011;8017;50.812;4.934;2022-08-03T09:11:47;3.60;;;1.00;;
15833;SDS011;8017;50.812;4.934;2022-08-03T09:14:49;4.87;;;1.30;;
15833;SDS011;8017;50.812;4.934;2022-08-03T09:17:51;1.40;;;0.83;;
15833;SDS011;8017;50.812;4.934;2022-08-03T09:20:55;2.97;;;0.97;;
15833;SDS011;8017;50.812;4.934;2022-08-03T09:24:14;5.67;;;1.07;;
15833;SDS011;8017;50.812;4.934;2022-08-03T09:27:22;2.13;;;1.10;;
15833;SDS011;8017;50.812;4.934;2022-08-03T09:30:24;2.20;;;1.03;;
15833;SDS011;8017;50.812;4.934;2022-08-03T09:33:26;2.87;;;0.90;;
15833;SDS011;8017;50.812;4.934;2022-08-03T09:36:38;1.80;;;1.10;;
15833;SDS011;8017;50.812;4.934;2022-08-03T09:39:44;2.97;;;1.03;;
15833;SDS011;8017;50.812;4.934;2022-08-03T09:42:54;5.07;;;1.17;;
15833;SDS011;8017;50.812;4.934;2022-08-03T09:46:03;2.77;;;1.10;;
15833;SDS011;8017;50.812;4.934;2022-08-03T09:49:09;1.98;;;0.85;;
15833;SDS011;8017;50.812;4.934;2022-08-03T09:52:12;2.65;;;1.05;;
15833;SDS011;8017;50.812;4.934;2022-08-03T09:55:18;4.05;;;1.00;;
15833;SDS011;8017;50.812;4.934;2022-08-03T09:58:22;3.30;;;0.87;;
15833;SDS011;8017;50.812;4.934;2022-08-03T10:01:28;2.23;;;0.80;;
15833;SDS011;8017;50.812;4.934;2022-08-03T10:04:33;1.65;;;0.75;;
15833;SDS011;8017;50.812;4.934;2022-08-03T10:07:49;4.57;;;1.00;;
15833;SDS011;8017;50.812;4.934;2022-08-03T10:10:52;1.88;;;0.90;;
15833;SDS011;8017;50.812;4.934;2022-08-03T10:13:54;3.05;;;0.90;;
15833;SDS011;8017;50.812;4.934;2022-08-03T10:16:56;1.95;;;0.90;;
15833;SDS011;8017;50.812;4.934;2022-08-03T10:19:58;2.65;;;0.85;;
15833;SDS011;8017;50.812;4.934;2022-08-03T10:23:00;2.38;;;0.82;;
15833;SDS011;8017;50.812;4.934;2022-08-03T10:26:05;2.05;;;0.90;;
15833;SDS011;8017;50.812;4.934;2022-08-03T10:29:09;3.22;;;0.80;;
15833;SDS011;8017;50.812;4.934;2022-08-03T10:32:19;2.55;;;1.13;;
15833;SDS011;8017;50.812;4.934;2022-08-03T10:35:26;2.47;;;0.82;;
15833;SDS011;8017;50.812;4.934;2022-08-03T10:38:31;2.38;;;0.80;;
15833;SDS011;8017;50.812;4.934;2022-08-03T10:41:41;2.28;;;0.90;;
15833;SDS011;8017;50.812;4.934;2022-08-03T10:44:45;1.50;;;0.90;;
15833;SDS011;8017;50.812;4.934;2022-08-03T10:47:50;2.33;;;0.90;;
15833;SDS011;8017;50.812;4.934;2022-08-03T10:50:53;1.45;;;0.80;;
15833;SDS011;8017;50.812;4.934;2022-08-03T10:53:55;2.63;;;0.93;;
15833;SDS011;8017;50.812;4.934;2022-08-03T10:56:59;3.83;;;0.98;;
15833;SDS011;8017;50.812;4.934;2022-08-03T11:00:19;3.05;;;1.00;;
15833;SDS011;8017;50.812;4.934;2022-08-03T11:03:21;2.53;;;1.00;;
15833;SDS011;8017;50.812;4.934;2022-08-03T11:06:24;2.45;;;1.02;;
15833;SDS011;8017;50.812;4.934;2022-08-03T11:09:26;1.65;;;1.00;;
15833;SDS011;8017;50.812;4.934;2022-08-03T11:12:43;5.05;;;1.15;;
15833;SDS011;8017;50.812;4.934;2022-08-03T11:15:46;2.05;;;1.13;;
15833;SDS011;8017;50.812;4.934;2022-08-03T11:18:56;1.90;;;0.80;;
15833;SDS011;8017;50.812;4.934;2022-08-03T11:21:59;3.83;;;0.90;;
15833;SDS011;8017;50.812;4.934;2022-08-03T11:25:01;3.13;;;0.85;;
15833;SDS011;8017;50.812;4.934;2022-08-03T11:35:05;1.92;;;0.95;;
15833;SDS011;8017;50.812;4.934;2022-08-03T11:38:09;2.70;;;0.90;;
15833;SDS011;8017;50.812;4.934;2022-08-03T11:41:20;1.60;;;0.90;;
15833;SDS011;8017;50.812;4.934;2022-08-03T11:44:40;5.88;;;1.00;;
15833;SDS011;8017;50.812;4.934;2022-08-03T11:47:43;2.97;;;0.85;;
15833;SDS011;8017;50.812;4.934;2022-08-03T11:50:45;4.90;;;1.05;;
15833;SDS011;8017;50.812;4.934;2022-08-03T11:53:50;4.15;;;0.90;;
15833;SDS011;8017;50.812;4.934;2022-08-03T11:56:53;4.15;;;0.98;;
15833;SDS011;8017;50.812;4.934;2022-08-03T11:59:56;3.22;;;0.73;;
15833;SDS011;8017;50.812;4.934;2022-08-03T12:03:02;3.65;;;0.90;;
15833;SDS011;8017;50.812;4.934;2022-08-03T12:06:08;2.65;;;0.90;;
15833;SDS011;8017;50.812;4.934;2022-08-03T12:09:14;2.92;;;0.90;;
15833;SDS011;8017;50.812;4.934;2022-08-03T12:12:16;2.33;;;0.80;;
15833;SDS011;8017;50.812;4.934;2022-08-03T12:15:23;4.95;;;1.10;;
15833;SDS011;8017;50.812;4.934;2022-08-03T12:18:26;2.80;;;0.95;;
15833;SDS011;8017;50.812;4.934;2022-08-03T12:21:28;3.67;;;1.05;;
15833;SDS011;8017;50.812;4.934;2022-08-03T12:24:38;3.85;;;1.00;;
15833;SDS011;8017;50.812;4.934;2022-08-03T12:27:41;1.52;;;0.95;;
15833;SDS011;8017;50.812;4.934;2022-08-03T12:30:46;1.63;;;0.70;;
15833;SDS011;8017;50.812;4.934;2022-08-03T12:33:56;2.55;;;0.90;;
15833;SDS011;8017;50.812;4.934;2022-08-03T12:37:03;2.22;;;0.70;;
15833;SDS011;8017;50.812;4.934;2022-08-03T12:40:06;2.80;;;0.93;;
15833;SDS011;8017;50.812;4.934;2022-08-03T12:43:10;1.35;;;0.90;;
15833;SDS011;8017;50.812;4.934;2022-08-03T12:46:15;4.72;;;1.17;;
15833;SDS011;8017;50.812;4.934;2022-08-03T12:49:18;3.63;;;0.70;;
15833;SDS011;8017;50.812;4.934;2022-08-03T12:52:21;1.30;;;0.90;;
15833;SDS011;8017;50.812;4.934;2022-08-03T12:55:25;1.23;;;0.70;;
15833;SDS011;8017;50.812;4.934;2022-08-03T12:58:33;2.80;;;0.90;;
15833;SDS011;8017;50.812;4.934;2022-08-03T13:01:37;2.47;;;1.00;;
15833;SDS011;8017;50.812;4.934;2022-08-03T13:04:39;0.80;;;0.75;;
15833;SDS011;8017;50.812;4.934;2022-08-03T13:07:41;3.17;;;0.80;;
15833;SDS011;8017;50.812;4.934;2022-08-03T13:10:44;4.70;;;1.40;;
15833;SDS011;8017;50.812;4.934;2022-08-03T13:13:47;2.15;;;1.13;;
15833;SDS011;8017;50.812;4.934;2022-08-03T13:16:50;1.50;;;0.90;;
15833;SDS011;8017;50.812;4.934;2022-08-03T13:19:52;2.25;;;1.10;;
15833;SDS011;8017;50.812;4.934;2022-08-03T13:22:54;2.50;;;1.00;;
15833;SDS011;8017;50.812;4.934;2022-08-03T13:25:56;1.70;;;0.90;;
15833;SDS011;8017;50.812;4.934;2022-08-03T13:28:58;1.45;;;0.70;;
15833;SDS011;8017;50.812;4.934;2022-08-03T13:32:02;1.23;;;0.85;;
15833;SDS011;8017;50.812;4.934;2022-08-03T13:35:05;2.63;;;0.90;;
15833;SDS011;8017;50.812;4.934;2022-08-03T13:38:07;3.05;;;0.90;;
15833;SDS011;8017;50.812;4.934;2022-08-03T13:41:09;2.80;;;0.90;;
15833;SDS011;8017;50.812;4.934;2022-08-03T13:44:11;4.95;;;1.17;;
15833;SDS011;8017;50.812;4.934;2022-08-03T13:47:14;2.70;;;0.90;;
15833;SDS011;8017;50.812;4.934;2022-08-03T13:50:16;2.70;;;0.80;;
15833;SDS011;8017;50.812;4.934;2022-08-03T13:53:18;2.33;;;0.77;;
15833;SDS011;8017;50.812;4.934;2022-08-03T13:56:20;2.90;;;0.80;;
15833;SDS011;8017;50.812;4.934;2022-08-03T13:59:22;4.05;;;0.90;;
15833;SDS011;8017;50.812;4.934;2022-08-03T14:02:26;2.55;;;0.90;;
15833;SDS011;8017;50.812;4.934;2022-08-03T14:05:28;2.20;;;0.80;;
15833;SDS011;8017;50.812;4.934;2022-08-03T14:08:30;2.45;;;1.30;;
15833;SDS011;8017;50.812;4.934;2022-08-03T14:11:32;1.50;;;1.00;;
15833;SDS011;8017;50.812;4.934;2022-08-03T14:14:34;2.92;;;0.90;;
15833;SDS011;8017;50.812;4.934;2022-08-03T14:17:37;2.72;;;1.00;;
15833;SDS011;8017;50.812;4.934;2022-08-03T14:20:40;2.15;;;0.88;;
15833;SDS011;8017;50.812;4.934;2022-08-03T14:23:42;1.90;;;0.90;;
15833;SDS011;8017;50.812;4.934;2022-08-03T14:26:44;1.67;;;0.60;;
15833;SDS011;8017;50.812;4.934;2022-08-03T14:29:45;3.15;;;1.05;;
15833;SDS011;8017;50.812;4.934;2022-08-03T14:32:49;3.08;;;0.73;;
15833;SDS011;8017;50.812;4.934;2022-08-03T14:35:51;3.40;;;0.77;;
15833;SDS011;8017;50.812;4.934;2022-08-03T14:38:52;1.20;;;0.80;;
15833;SDS011;8017;50.812;4.934;2022-08-03T14:41:54;1.48;;;0.90;;
15833;SDS011;8017;50.812;4.934;2022-08-03T14:44:56;1.42;;;0.80;;
15833;SDS011;8017;50.812;4.934;2022-08-03T14:47:59;2.03;;;0.88;;
15833;SDS011;8017;50.812;4.934;2022-08-03T14:51:03;2.90;;;1.02;;
15833;SDS011;8017;50.812;4.934;2022-08-03T14:54:05;2.60;;;0.68;;
15833;SDS011;8017;50.812;4.934;2022-08-03T14:57:07;4.82;;;0.90;;
15833;SDS011;8017;50.812;4.934;2022-08-03T15:00:09;2.03;;;0.88;;
15833;SDS011;8017;50.812;4.934;2022-08-03T15:03:13;1.27;;;0.75;;
15833;SDS011;8017;50.812;4.934;2022-08-03T15:06:16;2.50;;;0.90;;
15833;SDS011;8017;50.812;4.934;2022-08-03T15:09:17;0.95;;;0.82;;
15833;SDS011;8017;50.812;4.934;2022-08-03T15:12:19;2.10;;;1.27;;
15833;SDS011;8017;50.812;4.934;2022-08-03T15:15:21;2.10;;;0.80;;
15833;SDS011;8017;50.812;4.934;2022-08-03T15:18:26;1.92;;;0.80;;
15833;SDS011;8017;50.812;4.934;2022-08-03T15:21:27;1.15;;;0.82;;
15833;SDS011;8017;50.812;4.934;2022-08-03T15:24:29;0.88;;;0.68;;
15833;SDS011;8017;50.812;4.934;2022-08-03T15:27:31;4.18;;;0.98;;
15833;SDS011;8017;50.812;4.934;2022-08-03T15:30:33;1.38;;;0.75;;
15833;SDS011;8017;50.812;4.934;2022-08-03T15:33:38;1.30;;;0.73;;
15833;SDS011;8017;50.812;4.934;2022-08-03T15:36:40;4.28;;;0.60;;
15833;SDS011;8017;50.812;4.934;2022-08-03T15:39:42;3.33;;;0.60;;
15833;SDS011;8017;50.812;4.934;2022-08-03T15:42:44;2.97;;;0.80;;
15833;SDS011;8017;50.812;4.934;2022-08-03T15:45:46;1.08;;;0.70;;
15833;SDS011;8017;50.812;4.934;2022-08-03T15:48:49;3.17;;;0.68;;
15833;SDS011;8017;50.812;4.934;2022-08-03T15:51:51;4.38;;;0.88;;
15833;SDS011;8017;50.812;4.934;2022-08-03T15:54:53;2.80;;;0.90;;
15833;SDS011;8017;50.812;4.934;2022-08-03T15:57:54;5.20;;;0.70;;
15833;SDS011;8017;50.812;4.934;2022-08-03T16:00:56;0.85;;;0.60;;
15833;SDS011;8017;50.812;4.934;2022-08-03T16:04:00;1.25;;;0.68;;
15833;SDS011;8017;50.812;4.934;2022-08-03T16:07:02;3.63;;;0.80;;
15833;SDS011;8017;50.812;4.934;2022-08-03T16:10:04;2.50;;;0.60;;
15833;SDS011;8017;50.812;4.934;2022-08-03T16:13:07;2.35;;;0.90;;
15833;SDS011;8017;50.812;4.934;2022-08-03T16:16:09;2.05;;;0.60;;
15833;SDS011;8017;50.812;4.934;2022-08-03T16:19:12;2.67;;;0.73;;
15833;SDS011;8017;50.812;4.934;2022-08-03T16:22:14;2.45;;;0.80;;
15833;SDS011;8017;50.812;4.934;2022-08-03T16:25:16;2.00;;;0.70;;
15833;SDS011;8017;50.812;4.934;2022-08-03T16:28:18;1.00;;;0.70;;
15833;SDS011;8017;50.812;4.934;2022-08-03T16:31:21;2.88;;;0.88;;
15833;SDS011;8017;50.812;4.934;2022-08-03T16:34:27;3.97;;;0.90;;
15833;SDS011;8017;50.812;4.934;2022-08-03T16:37:29;2.08;;;0.70;;
15833;SDS011;8017;50.812;4.934;2022-08-03T16:40:31;1.17;;;0.55;;
15833;SDS011;8017;50.812;4.934;2022-08-03T16:43:33;1.77;;;0.85;;
15833;SDS011;8017;50.812;4.934;2022-08-03T16:46:35;5.88;;;1.40;;
15833;SDS011;8017;50.812;4.934;2022-08-03T16:49:41;2.95;;;0.80;;
15833;SDS011;8017;50.812;4.934;2022-08-03T16:52:43;1.67;;;0.50;;
15833;SDS011;8017;50.812;4.934;2022-08-03T16:55:45;2.67;;;0.55;;
15833;SDS011;8017;50.812;4.934;2022-08-03T16:58:47;3.85;;;0.90;;
15833;SDS011;8017;50.812;4.934;2022-08-03T17:01:49;4.60;;;0.60;;
15833;SDS011;8017;50.812;4.934;2022-08-03T17:04:53;3.55;;;0.80;;
15833;SDS011;8017;50.812;4.934;2022-08-03T17:07:57;1.13;;;0.70;;
15833;SDS011;8017;50.812;4.934;2022-08-03T17:10:58;1.80;;;0.70;;
15833;SDS011;8017;50.812;4.934;2022-08-03T17:14:00;3.60;;;0.98;;
15833;SDS011;8017;50.812;4.934;2022-08-03T17:17:03;3.65;;;0.77;;
15833;SDS011;8017;50.812;4.934;2022-08-03T17:20:11;2.72;;;1.10;;
15833;SDS011;8017;50.812;4.934;2022-08-03T17:23:22;4.57;;;0.75;;
15833;SDS011;8017;50.812;4.934;2022-08-03T17:26:36;5.65;;;1.02;;
15833;SDS011;8017;50.812;4.934;2022-08-03T17:29:42;1.42;;;0.57;;
15833;SDS011;8017;50.812;4.934;2022-08-03T17:32:47;2.45;;;0.80;;
15833;SDS011;8017;50.812;4.934;2022-08-03T17:35:50;2.72;;;0.77;;
15833;SDS011;8017;50.812;4.934;2022-08-03T17:38:54;3.60;;;1.08;;
15833;SDS011;8017;50.812;4.934;2022-08-03T17:41:56;1.30;;;0.80;;
15833;SDS011;8017;50.812;4.934;2022-08-03T17:44:59;4.22;;;0.82;;
15833;SDS011;8017;50.812;4.934;2022-08-03T17:48:01;2.80;;;0.80;;
15833;SDS011;8017;50.812;4.934;2022-08-03T17:51:07;1.90;;;0.60;;
15833;SDS011;8017;50.812;4.934;2022-08-03T17:54:15;3.83;;;0.90;;
15833;SDS011;8017;50.812;4.934;2022-08-03T17:57:25;3.65;;;1.00;;
15833;SDS011;8017;50.812;4.934;2022-08-03T18:00:32;2.72;;;0.90;;
15833;SDS011;8017;50.812;4.934;2022-08-03T18:04:09;3.85;;;1.25;;
15833;SDS011;8017;50.812;4.934;2022-08-03T18:07:15;5.30;;;1.10;;
15833;SDS011;8017;50.812;4.934;2022-08-03T18:10:22;4.57;;;1.40;;
15833;SDS011;8017;50.812;4.934;2022-08-03T18:13:28;4.40;;;0.98;;
15833;SDS011;8017;50.812;4.934;2022-08-03T18:16:32;4.93;;;1.23;;
15833;SDS011;8017;50.812;4.934;2022-08-03T18:19:37;2.58;;;0.80;;
15833;SDS011;8017;50.812;4.934;2022-08-03T18:22:40;1.17;;;1.05;;
15833;SDS011;8017;50.812;4.934;2022-08-03T18:25:44;1.83;;;0.90;;
15833;SDS011;8017;50.812;4.934;2022-08-03T18:28:47;2.45;;;0.80;;
15833;SDS011;8017;50.812;4.934;2022-08-03T18:31:49;4.30;;;1.20;;
15833;SDS011;8017;50.812;4.934;2022-08-03T18:34:58;3.83;;;0.93;;
15833;SDS011;8017;50.812;4.934;2022-08-03T18:38:04;3.17;;;0.65;;
15833;SDS011;8017;50.812;4.934;2022-08-03T18:41:08;4.05;;;1.00;;
15833;SDS011;8017;50.812;4.934;2022-08-03T18:44:11;3.92;;;1.00;;
15833;SDS011;8017;50.812;4.934;2022-08-03T18:47:20;3.25;;;1.05;;
15833;SDS011;8017;50.812;4.934;2022-08-03T18:50:33;3.35;;;1.08;;
15833;SDS011;8017;50.812;4.934;2022-08-03T18:53:41;2.70;;;0.98;;
15833;SDS011;8017;50.812;4.934;2022-08-03T18:56:50;3.75;;;1.15;;